sensor_id;sensor_type;location;lat;lon;timestamp;pressure;altitude;pressure_sealevel;temperature;humidity
6530;BME280;3298;42.688;23.366;2022-09-09T00:01:58;60289.25;;;-145.06;81.27
6530;BME280;3298;42.688;23.366;2022-09-09T00:04:28;60279.00;;;-145.06;81.64
6530;BME280;3298;42.688;23.366;2022-09-09T00:07:03;60309.78;;;-145.06;82.24
6530;BME280;3298;42.688;23.366;2022-09-09T00:09:35;60303.63;;;-145.06;83.34
6530;BME280;3298;42.688;23.366;2022-09-09T00:12:11;60198.97;;;-145.06;83.54
6530;BME280;3298;42.688;23.366;2022-09-09T00:14:45;60340.56;;;-145.06;83.55
6530;BME280;3298;42.688;23.366;2022-09-09T00:17:22;60328.25;;;-145.06;84.48
6530;BME280;3298;42.688;23.366;2022-09-09T00:19:56;60303.63;;;-145.06;85.88
6530;BME280;3298;42.688;23.366;2022-09-09T00:22:30;60299.53;;;-145.06;86.74
6530;BME280;3298;42.688;23.366;2022-09-09T00:25:03;60235.91;;;-145.06;87.19
6530;BME280;3298;42.688;23.366;2022-09-09T00:27:41;60328.25;;;-145.06;87.16
6530;BME280;3298;42.688;23.366;2022-09-09T00:30:16;60270.81;;;-145.06;88.04
6530;BME280;3298;42.688;23.366;2022-09-09T00:32:45;60326.19;;;-145.06;88.25
6530;BME280;3298;42.688;23.366;2022-09-09T00:35:17;60342.63;;;-145.06;88.65
6530;BME280;3298;42.688;23.366;2022-09-09T00:37:47;60373.41;;;-145.06;88.98
6530;BME280;3298;42.688;23.366;2022-09-09T00:40:22;60371.34;;;-145.06;89.45
6530;BME280;3298;42.688;23.366;2022-09-09T00:42:58;60393.91;;;-145.06;89.77
6530;BME280;3298;42.688;23.366;2022-09-09T00:45:43;60406.22;;;-145.06;89.56
6530;BME280;3298;42.688;23.366;2022-09-09T00:48:16;60406.22;;;-145.06;88.97
6530;BME280;3298;42.688;23.366;2022-09-09T00:50:47;60400.06;;;-145.06;88.61
6530;BME280;3298;42.688;23.366;2022-09-09T00:53:28;60418.53;;;-145.06;88.15
6530;BME280;3298;42.688;23.366;2022-09-09T00:56:00;60393.91;;;-145.06;87.65
6530;BME280;3298;42.688;23.366;2022-09-09T00:58:33;63241.16;;;-145.06;86.11
6530;BME280;3298;42.688;23.366;2022-09-09T01:01:04;60361.09;;;-145.06;85.43
6530;BME280;3298;42.688;23.366;2022-09-09T01:03:37;60381.59;;;-145.06;84.96
6530;BME280;3298;42.688;23.366;2022-09-09T01:06:16;60391.84;;;-145.06;84.74
6530;BME280;3298;42.688;23.366;2022-09-09T01:09:04;60379.53;;;-145.06;84.67
6530;BME280;3298;42.688;23.366;2022-09-09T01:11:38;60393.91;;;-145.06;84.65
6530;BME280;3298;42.688;23.366;2022-09-09T01:14:13;60365.19;;;-145.06;84.43
6530;BME280;3298;42.688;23.366;2022-09-09T01:16:44;60389.81;;;-145.06;84.53
6530;BME280;3298;42.688;23.366;2022-09-09T01:19:18;60373.41;;;-145.06;84.33
6530;BME280;3298;42.688;23.366;2022-09-09T01:21:52;60395.97;;;-145.06;84.43
6530;BME280;3298;42.688;23.366;2022-09-09T01:24:27;60422.63;;;-145.06;84.50
6530;BME280;3298;42.688;23.366;2022-09-09T01:27:01;60383.66;;;-145.06;84.55
6530;BME280;3298;42.688;23.366;2022-09-09T01:29:29;60369.28;;;-145.06;84.97
6530;BME280;3298;42.688;23.366;2022-09-09T01:31:58;60367.25;;;-145.06;84.98
6530;BME280;3298;42.688;23.366;2022-09-09T01:34:27;60328.25;;;-145.06;85.39
6530;BME280;3298;42.688;23.366;2022-09-09T01:36:59;60356.97;;;-145.06;86.43
6530;BME280;3298;42.688;23.366;2022-09-09T01:39:27;60342.63;;;-145.06;87.10
6530;BME280;3298;42.688;23.366;2022-09-09T01:41:55;60369.28;;;-145.06;87.50
6530;BME280;3298;42.688;23.366;2022-09-09T01:44:24;60328.25;;;-145.06;87.87
6530;BME280;3298;42.688;23.366;2022-09-09T01:46:52;60369.28;;;-145.06;88.30
6530;BME280;3298;42.688;23.366;2022-09-09T01:49:19;60377.50;;;-145.06;88.22
6530;BME280;3298;42.688;23.366;2022-09-09T01:51:49;60395.97;;;-145.06;88.15
6530;BME280;3298;42.688;23.366;2022-09-09T01:54:18;60285.16;;;-145.06;88.49
6530;BME280;3298;42.688;23.366;2022-09-09T01:56:55;60385.72;;;-145.06;88.12
6530;BME280;3298;42.688;23.366;2022-09-09T01:59:35;60356.97;;;-145.06;88.64
6530;BME280;3298;42.688;23.366;2022-09-09T02:02:10;60410.31;;;-145.06;87.99
6530;BME280;3298;42.688;23.366;2022-09-09T02:04:40;60365.19;;;-145.06;88.38
6530;BME280;3298;42.688;23.366;2022-09-09T02:07:18;60330.31;;;-145.06;89.60
6530;BME280;3298;42.688;23.366;2022-09-09T02:09:52;60348.78;;;-145.06;89.97
6530;BME280;3298;42.688;23.366;2022-09-09T02:12:25;60174.38;;;-145.06;90.55
6530;BME280;3298;42.688;23.366;2022-09-09T02:14:56;60356.97;;;-145.06;90.54
6530;BME280;3298;42.688;23.366;2022-09-09T02:17:28;60332.34;;;-145.06;91.25
6530;BME280;3298;42.688;23.366;2022-09-09T02:20:03;60342.63;;;-145.06;91.14
6530;BME280;3298;42.688;23.366;2022-09-09T02:22:31;60381.59;;;-145.06;90.94
6530;BME280;3298;42.688;23.366;2022-09-09T02:25:01;60332.34;;;-145.06;90.34
6530;BME280;3298;42.688;23.366;2022-09-09T02:27:30;60350.81;;;-145.06;90.58
6530;BME280;3298;42.688;23.366;2022-09-09T02:30:00;60315.94;;;-145.06;90.97
6530;BME280;3298;42.688;23.366;2022-09-09T02:32:28;60205.13;;;-145.06;90.75
6530;BME280;3298;42.688;23.366;2022-09-09T02:35:02;60379.53;;;-145.06;90.05
6530;BME280;3298;42.688;23.366;2022-09-09T02:37:34;60352.88;;;-145.06;90.26
6530;BME280;3298;42.688;23.366;2022-09-09T02:40:03;60379.53;;;-145.06;90.00
6530;BME280;3298;42.688;23.366;2022-09-09T02:42:30;60365.19;;;-145.06;90.32
6530;BME280;3298;42.688;23.366;2022-09-09T02:44:58;60369.28;;;-145.06;90.67
6530;BME280;3298;42.688;23.366;2022-09-09T02:47:29;60363.13;;;-145.06;90.75
6530;BME280;3298;42.688;23.366;2022-09-09T02:50:06;60346.72;;;-145.06;90.81
6530;BME280;3298;42.688;23.366;2022-09-09T02:52:41;60359.03;;;-145.06;91.08
6530;BME280;3298;42.688;23.366;2022-09-09T02:55:16;60322.09;;;-145.06;91.38
6530;BME280;3298;42.688;23.366;2022-09-09T02:57:46;60365.19;;;-145.06;91.99
6530;BME280;3298;42.688;23.366;2022-09-09T03:00:15;60315.94;;;-145.06;91.60
6530;BME280;3298;42.688;23.366;2022-09-09T03:02:42;60338.50;;;-145.06;92.53
6530;BME280;3298;42.688;23.366;2022-09-09T03:05:10;60338.50;;;-145.06;92.28
6530;BME280;3298;42.688;23.366;2022-09-09T03:07:38;60361.09;;;-145.06;92.01
6530;BME280;3298;42.688;23.366;2022-09-09T03:10:06;60250.28;;;-145.06;92.52
6530;BME280;3298;42.688;23.366;2022-09-09T03:12:33;60346.72;;;-145.06;93.06
6530;BME280;3298;42.688;23.366;2022-09-09T03:15:00;60365.19;;;-145.06;93.31
6530;BME280;3298;42.688;23.366;2022-09-09T03:17:28;60332.34;;;-145.06;92.62
6530;BME280;3298;42.688;23.366;2022-09-09T03:19:55;60334.41;;;-145.06;91.02
6530;BME280;3298;42.688;23.366;2022-09-09T03:22:23;60102.53;;;-145.06;90.24
6530;BME280;3298;42.688;23.366;2022-09-09T03:24:50;60322.09;;;-145.06;90.93
6530;BME280;3298;42.688;23.366;2022-09-09T03:27:17;60393.91;;;-145.06;91.37
6530;BME280;3298;42.688;23.366;2022-09-09T03:29:44;60340.56;;;-145.06;91.13
6530;BME280;3298;42.688;23.366;2022-09-09T03:32:11;60324.16;;;-145.06;91.70
6530;BME280;3298;42.688;23.366;2022-09-09T03:34:39;60307.72;;;-145.06;92.59
6530;BME280;3298;42.688;23.366;2022-09-09T03:37:06;60340.56;;;-145.06;92.39
6530;BME280;3298;42.688;23.366;2022-09-09T03:39:33;60291.31;;;-145.06;93.19
6530;BME280;3298;42.688;23.366;2022-09-09T03:42:00;60301.56;;;-145.06;93.36
6530;BME280;3298;42.688;23.366;2022-09-09T03:44:29;60164.09;;;-145.06;93.17
6530;BME280;3298;42.688;23.366;2022-09-09T03:46:56;60192.81;;;-145.06;94.21
6530;BME280;3298;42.688;23.366;2022-09-09T03:49:26;60176.41;;;-145.06;95.26
6530;BME280;3298;42.688;23.366;2022-09-09T03:51:55;60157.94;;;-145.06;96.23
6530;BME280;3298;42.688;23.366;2022-09-09T03:54:24;60125.13;;;-145.06;95.91
6530;BME280;3298;42.688;23.366;2022-09-09T03:56:50;60028.69;;;-145.06;96.73
6530;BME280;3298;42.688;23.366;2022-09-09T03:59:17;59967.13;;;-145.06;97.53
6530;BME280;3298;42.688;23.366;2022-09-09T04:01:44;59852.25;;;-145.06;96.68
6530;BME280;3298;42.688;23.366;2022-09-09T04:04:12;59827.63;;;-145.06;96.16
6530;BME280;3298;42.688;23.366;2022-09-09T04:06:39;59774.28;;;-145.06;94.75
6530;BME280;3298;42.688;23.366;2022-09-09T04:09:07;59708.63;;;-145.06;94.85
6530;BME280;3298;42.688;23.366;2022-09-09T04:11:34;59663.50;;;-145.06;95.16
6530;BME280;3298;42.688;23.366;2022-09-09T04:14:00;59610.16;;;-145.06;96.21
6530;BME280;3298;42.688;23.366;2022-09-09T04:16:27;59581.44;;;-145.06;97.13
6530;BME280;3298;42.688;23.366;2022-09-09T04:18:54;59556.81;;;-145.06;97.34
6530;BME280;3298;42.688;23.366;2022-09-09T04:21:23;59487.06;;;-145.06;96.68
6530;BME280;3298;42.688;23.366;2022-09-09T04:23:49;59507.59;;;-145.06;96.22
6530;BME280;3298;42.688;23.366;2022-09-09T04:26:18;59476.81;;;-145.06;95.58
6530;BME280;3298;42.688;23.366;2022-09-09T04:28:45;59476.81;;;-145.06;94.24
6530;BME280;3298;42.688;23.366;2022-09-09T04:31:15;59433.75;;;-145.06;93.21
6530;BME280;3298;42.688;23.366;2022-09-09T04:33:43;59396.81;;;-145.06;92.43
6530;BME280;3298;42.688;23.366;2022-09-09T04:36:10;59423.47;;;-145.06;90.45
6530;BME280;3298;42.688;23.366;2022-09-09T04:38:37;59359.88;;;-145.06;90.46
6530;BME280;3298;42.688;23.366;2022-09-09T04:41:04;59347.59;;;-145.06;91.05
6530;BME280;3298;42.688;23.366;2022-09-09T04:43:33;59331.16;;;-145.06;89.70
6530;BME280;3298;42.688;23.366;2022-09-09T04:45:59;59353.75;;;-145.06;91.31
6530;BME280;3298;42.688;23.366;2022-09-09T04:48:26;59441.94;;;-145.06;91.59
6530;BME280;3298;42.688;23.366;2022-09-09T04:50:54;59415.28;;;-145.06;91.13
6530;BME280;3298;42.688;23.366;2022-09-09T04:53:21;59341.44;;;-145.06;90.03
6530;BME280;3298;42.688;23.366;2022-09-09T04:55:48;59318.88;;;-145.06;89.92
6530;BME280;3298;42.688;23.366;2022-09-09T04:58:16;59273.72;;;-145.06;89.37
6530;BME280;3298;42.688;23.366;2022-09-09T05:00:44;59236.81;;;-145.06;89.29
6530;BME280;3298;42.688;23.366;2022-09-09T05:03:11;59253.22;;;-145.06;88.65
6530;BME280;3298;42.688;23.366;2022-09-09T05:05:38;59259.38;;;-145.06;88.10
6530;BME280;3298;42.688;23.366;2022-09-09T05:08:07;59228.59;;;-145.06;88.53
6530;BME280;3298;42.688;23.366;2022-09-09T05:10:37;59224.50;;;-145.06;89.40
6530;BME280;3298;42.688;23.366;2022-09-09T05:13:04;59236.81;;;-145.06;89.54
6530;BME280;3298;42.688;23.366;2022-09-09T05:15:31;59253.22;;;-145.06;90.03
6530;BME280;3298;42.688;23.366;2022-09-09T05:18:00;59267.59;;;-145.06;89.18
6530;BME280;3298;42.688;23.366;2022-09-09T05:20:28;59292.19;;;-145.06;87.60
6530;BME280;3298;42.688;23.366;2022-09-09T05:22:55;59284.00;;;-145.06;86.94
6530;BME280;3298;42.688;23.366;2022-09-09T05:25:22;59300.41;;;-145.06;86.42
6530;BME280;3298;42.688;23.366;2022-09-09T05:27:50;59277.84;;;-145.06;86.75
6530;BME280;3298;42.688;23.366;2022-09-09T05:30:18;59298.34;;;-145.06;85.95
6530;BME280;3298;42.688;23.366;2022-09-09T05:32:45;59298.34;;;-145.06;85.52
6530;BME280;3298;42.688;23.366;2022-09-09T05:35:14;59318.88;;;-145.06;84.58
6530;BME280;3298;42.688;23.366;2022-09-09T05:37:41;59281.94;;;-145.06;84.59
6530;BME280;3298;42.688;23.366;2022-09-09T05:40:08;58879.91;;;-145.06;84.34
6530;BME280;3298;42.688;23.366;2022-09-09T05:42:36;59335.28;;;-145.06;83.51
6530;BME280;3298;42.688;23.366;2022-09-09T05:45:05;59320.91;;;-145.06;83.23
6530;BME280;3298;42.688;23.366;2022-09-09T05:47:33;59269.63;;;-145.06;82.98
6530;BME280;3298;42.688;23.366;2022-09-09T05:49:59;59314.75;;;-145.06;81.19
6530;BME280;3298;42.688;23.366;2022-09-09T05:52:27;59296.31;;;-145.06;78.57
6530;BME280;3298;42.688;23.366;2022-09-09T05:54:54;59228.59;;;-145.06;76.99
6530;BME280;3298;42.688;23.366;2022-09-09T05:57:22;59281.94;;;-145.06;77.01
6530;BME280;3298;42.688;23.366;2022-09-09T05:59:49;59286.03;;;-145.06;77.13
6530;BME280;3298;42.688;23.366;2022-09-09T06:02:16;59238.88;;;-145.06;76.57
6530;BME280;3298;42.688;23.366;2022-09-09T06:04:42;59347.59;;;-145.06;76.65
6530;BME280;3298;42.688;23.366;2022-09-09T06:07:09;59470.66;;;-145.06;76.70
6530;BME280;3298;42.688;23.366;2022-09-09T06:09:37;59327.06;;;-145.06;76.40
6530;BME280;3298;42.688;23.366;2022-09-09T06:12:05;59310.66;;;-145.06;74.69
6530;BME280;3298;42.688;23.366;2022-09-09T06:14:32;59314.75;;;-145.06;74.51
6530;BME280;3298;42.688;23.366;2022-09-09T06:16:58;59368.09;;;-145.06;74.18
6530;BME280;3298;42.688;23.366;2022-09-09T06:19:25;59359.88;;;-145.06;73.77
6530;BME280;3298;42.688;23.366;2022-09-09T06:21:52;59368.09;;;-145.06;73.86
6530;BME280;3298;42.688;23.366;2022-09-09T06:24:19;59359.88;;;-145.06;73.97
6530;BME280;3298;42.688;23.366;2022-09-09T06:26:47;59388.59;;;-145.06;72.56
6530;BME280;3298;42.688;23.366;2022-09-09T06:29:13;59294.25;;;-145.06;73.00
6530;BME280;3298;42.688;23.366;2022-09-09T06:31:40;59310.66;;;-145.06;73.46
6530;BME280;3298;42.688;23.366;2022-09-09T06:34:08;59351.69;;;-145.06;72.39
6530;BME280;3298;42.688;23.366;2022-09-09T06:36:36;59380.41;;;-145.06;71.95
6530;BME280;3298;42.688;23.366;2022-09-09T06:39:04;59357.84;;;-145.06;72.08
6530;BME280;3298;42.688;23.366;2022-09-09T06:41:32;59409.13;;;-145.06;71.27
6530;BME280;3298;42.688;23.366;2022-09-09T06:44:01;59454.25;;;-145.06;70.74
6530;BME280;3298;42.688;23.366;2022-09-09T06:46:29;59472.72;;;-145.06;69.73
6530;BME280;3298;42.688;23.366;2022-09-09T06:48:57;59437.84;;;-145.06;70.12
6530;BME280;3298;42.688;23.366;2022-09-09T06:51:27;59425.53;;;-145.06;70.00
6530;BME280;3298;42.688;23.366;2022-09-09T06:53:55;59460.41;;;-145.06;68.84
6530;BME280;3298;42.688;23.366;2022-09-09T06:56:24;59458.34;;;-145.06;68.85
6530;BME280;3298;42.688;23.366;2022-09-09T06:58:52;59482.97;;;-145.06;69.09
6530;BME280;3298;42.688;23.366;2022-09-09T07:01:22;59474.75;;;-145.06;68.60
6530;BME280;3298;42.688;23.366;2022-09-09T07:03:51;59495.28;;;-145.06;68.50
6530;BME280;3298;42.688;23.366;2022-09-09T07:06:19;59544.50;;;-145.06;68.88
6530;BME280;3298;42.688;23.366;2022-09-09T07:08:50;59573.22;;;-145.06;67.20
6530;BME280;3298;42.688;23.366;2022-09-09T07:11:19;59567.06;;;-145.06;67.01
6530;BME280;3298;42.688;23.366;2022-09-09T07:13:46;59526.06;;;-145.06;66.65
6530;BME280;3298;42.688;23.366;2022-09-09T07:16:15;59487.06;;;-145.06;66.06
6530;BME280;3298;42.688;23.366;2022-09-09T07:18:44;59507.59;;;-145.06;66.61
6530;BME280;3298;42.688;23.366;2022-09-09T07:21:12;59573.22;;;-145.06;66.22
6530;BME280;3298;42.688;23.366;2022-09-09T07:23:39;59452.19;;;-145.06;66.09
6530;BME280;3298;42.688;23.366;2022-09-09T07:26:10;59524.00;;;-145.06;66.01
6530;BME280;3298;42.688;23.366;2022-09-09T07:28:37;59593.75;;;-145.06;65.63
6530;BME280;3298;42.688;23.366;2022-09-09T07:31:05;59640.94;;;-145.06;64.69
6530;BME280;3298;42.688;23.366;2022-09-09T07:33:34;59667.59;;;-145.06;64.00
6530;BME280;3298;42.688;23.366;2022-09-09T07:36:07;59686.06;;;-145.06;63.99
6530;BME280;3298;42.688;23.366;2022-09-09T07:38:38;59729.16;;;-145.06;63.33
6530;BME280;3298;42.688;23.366;2022-09-09T07:41:08;59706.59;;;-145.06;62.73
6530;BME280;3298;42.688;23.366;2022-09-09T07:43:37;59540.41;;;-145.06;63.35
6530;BME280;3298;42.688;23.366;2022-09-09T07:46:05;59720.94;;;-145.06;62.85
6530;BME280;3298;42.688;23.366;2022-09-09T07:48:32;59743.50;;;-145.06;62.23
6530;BME280;3298;42.688;23.366;2022-09-09T07:51:06;59743.50;;;-145.06;61.57
6530;BME280;3298;42.688;23.366;2022-09-09T07:53:34;59716.84;;;-145.06;61.31
6530;BME280;3298;42.688;23.366;2022-09-09T07:56:06;59753.75;;;-145.06;61.68
6530;BME280;3298;42.688;23.366;2022-09-09T07:58:35;59745.56;;;-145.06;61.75
6530;BME280;3298;42.688;23.366;2022-09-09T08:01:06;59739.41;;;-145.06;61.80
6530;BME280;3298;42.688;23.366;2022-09-09T08:03:34;59741.47;;;-145.06;61.70
6530;BME280;3298;42.688;23.366;2022-09-09T08:06:02;59800.94;;;-145.06;61.42
6530;BME280;3298;42.688;23.366;2022-09-09T08:08:30;59766.06;;;-145.06;61.39
6530;BME280;3298;42.688;23.366;2022-09-09T08:11:08;59868.66;;;-145.06;60.40
6530;BME280;3298;42.688;23.366;2022-09-09T08:13:35;59829.69;;;-145.06;59.56
6530;BME280;3298;42.688;23.366;2022-09-09T08:16:07;59915.84;;;-145.06;59.90
6530;BME280;3298;42.688;23.366;2022-09-09T08:18:34;59757.88;;;-145.06;59.20
6530;BME280;3298;42.688;23.366;2022-09-09T08:21:06;59946.63;;;-145.06;60.03
6530;BME280;3298;42.688;23.366;2022-09-09T08:23:35;59870.72;;;-145.06;58.83
6530;BME280;3298;42.688;23.366;2022-09-09T08:26:07;59991.75;;;-145.06;59.25
6530;BME280;3298;42.688;23.366;2022-09-09T08:28:35;59942.50;;;-145.06;58.75
6530;BME280;3298;42.688;23.366;2022-09-09T08:31:11;60002.00;;;-145.06;59.14
6530;BME280;3298;42.688;23.366;2022-09-09T08:33:39;60032.78;;;-145.06;58.44
6530;BME280;3298;42.688;23.366;2022-09-09T08:36:09;60071.78;;;-145.06;58.48
6530;BME280;3298;42.688;23.366;2022-09-09T08:38:38;60073.81;;;-145.06;57.87
6530;BME280;3298;42.688;23.366;2022-09-09T08:41:22;59915.84;;;-145.06;57.86
6530;BME280;3298;42.688;23.366;2022-09-09T08:44:02;60102.53;;;-145.06;57.79
6530;BME280;3298;42.688;23.366;2022-09-09T08:46:39;60151.78;;;-145.06;57.79
6530;BME280;3298;42.688;23.366;2022-09-09T08:49:19;60190.78;;;-145.06;57.83
6530;BME280;3298;42.688;23.366;2022-09-09T08:51:53;60176.41;;;-145.06;56.95
6530;BME280;3298;42.688;23.366;2022-09-09T08:54:23;59995.84;;;-145.06;56.82
6530;BME280;3298;42.688;23.366;2022-09-09T08:56:50;60219.50;;;-145.06;56.62
6530;BME280;3298;42.688;23.366;2022-09-09T08:59:18;60268.75;;;-145.06;56.11
6530;BME280;3298;42.688;23.366;2022-09-09T09:01:57;60303.63;;;-145.06;55.72
6530;BME280;3298;42.688;23.366;2022-09-09T09:04:43;60367.25;;;-145.06;55.04
6530;BME280;3298;42.688;23.366;2022-09-09T09:07:21;60303.63;;;-145.06;55.00
6530;BME280;3298;42.688;23.366;2022-09-09T09:09:57;60424.69;;;-145.06;54.79
6530;BME280;3298;42.688;23.366;2022-09-09T09:12:35;60352.88;;;-145.06;54.00
6530;BME280;3298;42.688;23.366;2022-09-09T09:15:11;60320.03;;;-145.06;54.13
6530;BME280;3298;42.688;23.366;2022-09-09T09:17:41;60359.03;;;-145.06;52.88
6530;BME280;3298;42.688;23.366;2022-09-09T09:20:12;60346.72;;;-145.06;52.72
6530;BME280;3298;42.688;23.366;2022-09-09T09:22:47;60414.44;;;-145.06;52.62
6530;BME280;3298;42.688;23.366;2022-09-09T09:25:18;60391.84;;;-145.06;52.43
6530;BME280;3298;42.688;23.366;2022-09-09T09:27:51;60406.22;;;-145.06;53.17
6530;BME280;3298;42.688;23.366;2022-09-09T09:30:20;60348.78;;;-145.06;53.41
6530;BME280;3298;42.688;23.366;2022-09-09T09:32:52;60389.81;;;-145.06;52.58
6530;BME280;3298;42.688;23.366;2022-09-09T09:35:19;60408.28;;;-145.06;52.88
6530;BME280;3298;42.688;23.366;2022-09-09T09:37:47;60303.63;;;-145.06;53.37
6530;BME280;3298;42.688;23.366;2022-09-09T09:40:17;60342.63;;;-145.06;53.56
6530;BME280;3298;42.688;23.366;2022-09-09T09:42:49;60463.69;;;-145.06;52.74
6530;BME280;3298;42.688;23.366;2022-09-09T09:45:26;60457.53;;;-145.06;52.22
6530;BME280;3298;42.688;23.366;2022-09-09T09:47:58;60432.91;;;-145.06;52.10
6530;BME280;3298;42.688;23.366;2022-09-09T09:50:25;60473.94;;;-145.06;52.32
6530;BME280;3298;42.688;23.366;2022-09-09T09:52:56;60484.19;;;-145.06;51.85
6530;BME280;3298;42.688;23.366;2022-09-09T09:55:26;60527.28;;;-145.06;52.06
6530;BME280;3298;42.688;23.366;2022-09-09T09:57:53;60490.34;;;-145.06;52.45
6530;BME280;3298;42.688;23.366;2022-09-09T10:00:21;60476.00;;;-145.06;52.87
6530;BME280;3298;42.688;23.366;2022-09-09T10:02:49;60484.19;;;-145.06;52.15
6530;BME280;3298;42.688;23.366;2022-09-09T10:05:19;60459.56;;;-145.06;52.07
6530;BME280;3298;42.688;23.366;2022-09-09T10:07:47;60414.44;;;-145.06;52.62
6530;BME280;3298;42.688;23.366;2022-09-09T10:10:39;60424.69;;;-145.06;51.95
6530;BME280;3298;42.688;23.366;2022-09-09T10:13:12;60574.50;;;-145.06;51.57
6530;BME280;3298;42.688;23.366;2022-09-09T10:15:49;64200.34;;;-145.06;51.56
6530;BME280;3298;42.688;23.366;2022-09-09T10:18:30;60662.72;;;-145.06;51.75
6530;BME280;3298;42.688;23.366;2022-09-09T10:21:05;60666.84;;;-145.06;52.24
6530;BME280;3298;42.688;23.366;2022-09-09T10:23:46;60652.47;;;-145.06;52.56
6530;BME280;3298;42.688;23.366;2022-09-09T10:26:32;60605.28;;;-145.06;53.13
6530;BME280;3298;42.688;23.366;2022-09-09T10:29:14;60605.28;;;-145.06;53.03
6530;BME280;3298;42.688;23.366;2022-09-09T10:31:51;60578.59;;;-145.06;52.71
6530;BME280;3298;42.688;23.366;2022-09-09T10:34:37;60498.56;;;-145.06;53.22
6530;BME280;3298;42.688;23.366;2022-09-09T10:37:20;60523.19;;;-145.06;54.11
6530;BME280;3298;42.688;23.366;2022-09-09T10:39:56;60590.91;;;-145.06;54.41
6530;BME280;3298;42.688;23.366;2022-09-09T10:42:31;60549.88;;;-145.06;54.47
6530;BME280;3298;42.688;23.366;2022-09-09T10:45:13;60545.75;;;-145.06;54.91
6530;BME280;3298;42.688;23.366;2022-09-09T10:48:03;60558.06;;;-145.06;54.70
6530;BME280;3298;42.688;23.366;2022-09-09T10:50:45;60535.50;;;-145.06;54.83
6530;BME280;3298;42.688;23.366;2022-09-09T10:53:24;61038.28;;;-145.06;54.32
6530;BME280;3298;42.688;23.366;2022-09-09T10:55:56;60486.25;;;-145.06;54.83
6530;BME280;3298;42.688;23.366;2022-09-09T10:58:30;60595.00;;;-145.06;54.18
6530;BME280;3298;42.688;23.366;2022-09-09T11:01:03;60574.50;;;-145.06;55.06
6530;BME280;3298;42.688;23.366;2022-09-09T11:03:34;60613.47;;;-145.06;54.52
6530;BME280;3298;42.688;23.366;2022-09-09T11:06:05;60576.53;;;-145.06;54.97
6530;BME280;3298;42.688;23.366;2022-09-09T11:08:35;60574.50;;;-145.06;54.96
6530;BME280;3298;42.688;23.366;2022-09-09T11:11:03;60592.97;;;-145.06;55.16
6530;BME280;3298;42.688;23.366;2022-09-09T11:13:35;60570.38;;;-145.06;55.30
6530;BME280;3298;42.688;23.366;2022-09-09T11:16:16;60592.97;;;-145.06;55.65
6530;BME280;3298;42.688;23.366;2022-09-09T11:18:46;60467.78;;;-145.06;55.61
6530;BME280;3298;42.688;23.366;2022-09-09T11:21:19;60408.28;;;-145.06;56.05
6530;BME280;3298;42.688;23.366;2022-09-09T11:23:51;60430.84;;;-145.06;55.69
6530;BME280;3298;42.688;23.366;2022-09-09T11:26:29;60459.56;;;-145.06;55.27
6530;BME280;3298;42.688;23.366;2022-09-09T11:29:21;60492.41;;;-145.06;54.91
6530;BME280;3298;42.688;23.366;2022-09-09T11:32:02;60439.06;;;-145.06;55.14
6530;BME280;3298;42.688;23.366;2022-09-09T11:34:39;60586.81;;;-145.06;54.96
6530;BME280;3298;42.688;23.366;2022-09-09T11:37:21;60595.00;;;-145.06;55.46
6530;BME280;3298;42.688;23.366;2022-09-09T11:40:09;60562.19;;;-145.06;55.21
6530;BME280;3298;42.688;23.366;2022-09-09T11:42:42;60603.22;;;-145.06;55.59
6530;BME280;3298;42.688;23.366;2022-09-09T11:45:20;60545.75;;;-145.06;54.94
6530;BME280;3298;42.688;23.366;2022-09-09T11:47:53;60553.97;;;-145.06;55.05
6530;BME280;3298;42.688;23.366;2022-09-09T11:50:38;60512.94;;;-145.06;55.16
6530;BME280;3298;42.688;23.366;2022-09-09T11:53:21;60332.34;;;-145.06;55.21
6530;BME280;3298;42.688;23.366;2022-09-09T11:56:10;60523.19;;;-145.06;55.44
6530;BME280;3298;42.688;23.366;2022-09-09T11:58:43;60463.69;;;-145.06;55.28
6530;BME280;3298;42.688;23.366;2022-09-09T12:01:28;60371.34;;;-145.06;55.48
6530;BME280;3298;42.688;23.366;2022-09-09T12:04:12;60332.34;;;-145.06;55.34
6530;BME280;3298;42.688;23.366;2022-09-09T12:06:45;60494.47;;;-145.06;54.33
6530;BME280;3298;42.688;23.366;2022-09-09T12:09:26;60556.03;;;-145.06;53.13
6530;BME280;3298;42.688;23.366;2022-09-09T12:12:05;60861.78;;;-145.06;52.01
6530;BME280;3298;42.688;23.366;2022-09-09T12:14:38;60837.16;;;-145.06;51.59
6530;BME280;3298;42.688;23.366;2022-09-09T12:17:20;60753.03;;;-145.06;52.26
6530;BME280;3298;42.688;23.366;2022-09-09T12:19:48;60668.88;;;-145.06;52.77
6530;BME280;3298;42.688;23.366;2022-09-09T12:22:37;60428.78;;;-145.06;53.37
6530;BME280;3298;42.688;23.366;2022-09-09T12:25:16;60599.13;;;-145.06;53.03
6530;BME280;3298;42.688;23.366;2022-09-09T12:27:57;60689.41;;;-145.06;52.46
6530;BME280;3298;42.688;23.366;2022-09-09T12:30:29;60933.63;;;-145.06;51.77
6530;BME280;3298;42.688;23.366;2022-09-09T12:33:10;60800.22;;;-145.06;51.10
6530;BME280;3298;42.688;23.366;2022-09-09T12:35:38;60898.72;;;-145.06;50.83
6530;BME280;3298;42.688;23.366;2022-09-09T12:38:11;61079.34;;;-145.06;50.31
6530;BME280;3298;42.688;23.366;2022-09-09T12:40:40;61153.22;;;-145.06;50.86
6530;BME280;3298;42.688;23.366;2022-09-09T12:43:18;61087.53;;;-145.06;51.27
6530;BME280;3298;42.688;23.366;2022-09-09T12:45:46;60950.03;;;-145.06;52.59
6530;BME280;3298;42.688;23.366;2022-09-09T12:48:18;60911.03;;;-145.06;53.33
6530;BME280;3298;42.688;23.366;2022-09-09T12:50:49;60939.78;;;-145.06;53.58
6530;BME280;3298;42.688;23.366;2022-09-09T12:53:21;60986.97;;;-145.06;53.56
6530;BME280;3298;42.688;23.366;2022-09-09T12:55:51;60890.53;;;-145.06;53.95
6530;BME280;3298;42.688;23.366;2022-09-09T12:58:18;60738.66;;;-145.06;53.90
6530;BME280;3298;42.688;23.366;2022-09-09T13:00:49;60730.44;;;-145.06;54.37
6530;BME280;3298;42.688;23.366;2022-09-09T13:03:20;60927.47;;;-145.06;52.43
6530;BME280;3298;42.688;23.366;2022-09-09T13:05:47;61159.38;;;-145.06;51.46
6530;BME280;3298;42.688;23.366;2022-09-09T13:08:15;60993.13;;;-145.06;51.64
6530;BME280;3298;42.688;23.366;2022-09-09T13:10:48;61075.22;;;-145.06;51.10
6530;BME280;3298;42.688;23.366;2022-09-09T13:13:21;61249.69;;;-145.06;51.17